Time;durP1;ratioP1;P1;durP2;ratioP2;P2;SDS_P1;SDS_P2;PMS_P1;PMS_P2;Temp;Humidity;BMP_temperature;BMP_pressure;BME280_temperature;BME280_humidity;BME280_pressure;Samples;Min_cycle;Max_cycle;Signal;HPM_P1;HPM_P2
2021/10/14 00:01:47;;;;;;;269.25;246.25;;;;;;;9.55;100.00;101413.78;4937891;29;20051;-79
2021/10/14 00:04:14;;;;;;;273.25;249.73;;;;;;;9.61;100.00;101418.38;4937699;29;20107;-77
2021/10/14 00:06:43;;;;;;;269.13;245.48;;;;;;;9.51;100.00;101413.34;4939832;29;20111;-77
2021/10/14 00:09:10;;;;;;;270.67;248.70;;;;;;;9.60;100.00;101417.56;4939769;29;20497;-77
2021/10/14 00:11:36;;;;;;;274.83;251.68;;;;;;;9.54;100.00;101420.94;4937321;29;20126;-78
2021/10/14 00:14:03;;;;;;;283.17;259.15;;;;;;;9.45;100.00;101422.03;4937734;29;20122;-79
2021/10/14 00:16:30;;;;;;;291.92;267.92;;;;;;;9.49;100.00;101420.63;4940489;29;20048;-78
2021/10/14 00:18:59;;;;;;;292.38;268.58;;;;;;;9.55;100.00;101424.41;4938173;29;20064;-79
2021/10/14 00:21:25;;;;;;;304.75;279.90;;;;;;;9.56;100.00;101420.72;4940489;29;20111;-80
2021/10/14 00:23:52;;;;;;;298.35;273.73;;;;;;;9.53;100.00;101424.59;4937810;29;20116;-77
2021/10/14 00:26:19;;;;;;;284.30;260.67;;;;;;;9.53;100.00;101421.09;4937642;29;20126;-79
2021/10/14 00:28:46;;;;;;;250.43;227.45;;;;;;;9.46;100.00;101412.22;4937342;29;20464;-78
2021/10/14 00:31:12;;;;;;;254.00;230.73;;;;;;;9.42;100.00;101419.72;4937242;29;20051;-79
2021/10/14 00:33:39;;;;;;;260.17;236.98;;;;;;;9.38;100.00;101419.28;4937156;29;20122;-78
2021/10/14 00:36:07;;;;;;;260.58;236.85;;;;;;;9.38;100.00;101427.22;4943848;29;20047;-78
2021/10/14 00:38:34;;;;;;;238.93;216.07;;;;;;;9.38;100.00;101426.41;4937471;29;20052;-77
2021/10/14 00:41:00;;;;;;;253.80;230.35;;;;;;;9.39;100.00;101433.34;4937387;29;20063;-79
2021/10/14 00:43:27;;;;;;;251.88;228.05;;;;;;;9.43;100.00;101429.31;4937300;29;20051;-77
2021/10/14 00:45:54;;;;;;;246.13;223.43;;;;;;;9.48;100.00;101429.63;4937328;29;20056;-79
2021/10/14 00:48:21;;;;;;;231.30;209.60;;;;;;;9.49;100.00;101433.91;4937120;29;20111;-77
2021/10/14 00:50:48;;;;;;;250.48;227.30;;;;;;;9.49;100.00;101428.59;4937125;29;20484;-77
2021/10/14 00:53:16;;;;;;;252.73;229.52;;;;;;;9.45;100.00;101427.31;4936975;29;20052;-77
2021/10/14 00:55:43;;;;;;;274.50;249.60;;;;;;;9.38;100.00;101437.84;4935629;29;20484;-79
2021/10/14 00:58:10;;;;;;;251.50;227.85;;;;;;;9.40;100.00;101441.09;4936744;29;20071;-79
2021/10/14 01:00:37;;;;;;;252.55;229.40;;;;;;;9.44;100.00;101446.91;4940077;29;20123;-77
2021/10/14 01:03:03;;;;;;;254.38;230.45;;;;;;;9.40;100.00;101450.91;4937261;29;20039;-79
2021/10/14 01:05:30;;;;;;;254.20;230.25;;;;;;;9.44;100.00;101444.25;4938102;29;20048;-79
2021/10/14 01:07:57;;;;;;;243.63;220.43;;;;;;;9.42;100.00;101448.09;4945913;29;20473;-79
2021/10/14 01:10:25;;;;;;;246.25;222.80;;;;;;;9.37;100.00;101448.59;4935712;29;20056;-79
2021/10/14 01:12:52;;;;;;;245.77;221.60;;;;;;;9.44;100.00;101446.91;4928469;29;20044;-79
2021/10/14 01:15:21;;;;;;;249.63;226.95;;;;;;;9.51;100.00;101455.78;4936700;29;20122;-77
2021/10/14 01:17:48;;;;;;;314.42;287.83;;;;;;;9.45;100.00;101458.31;4939481;29;20098;-79
2021/10/14 01:20:17;;;;;;;312.85;286.38;;;;;;;9.39;100.00;101465.16;4937565;29;20123;-79
2021/10/14 01:22:44;;;;;;;316.27;288.85;;;;;;;9.51;100.00;101465.56;4947740;29;20047;-79
2021/10/14 01:25:10;;;;;;;316.15;288.70;;;;;;;9.58;100.00;101464.63;4938408;29;20059;-79
2021/10/14 01:27:38;;;;;;;322.10;294.38;;;;;;;9.63;100.00;101464.09;4933460;29;20062;-77
2021/10/14 01:30:06;;;;;;;308.15;282.50;;;;;;;9.57;100.00;101465.66;4936524;29;20051;-80
2021/10/14 01:32:33;;;;;;;296.92;271.15;;;;;;;9.63;100.00;101472.88;4937303;29;20063;-77
2021/10/14 01:35:03;;;;;;;317.65;290.23;;;;;;;9.66;100.00;101473.53;4936244;29;20453;-77
2021/10/14 01:37:31;;;;;;;309.27;282.30;;;;;;;9.61;100.00;101482.03;4936015;29;20118;-77
2021/10/14 01:39:57;;;;;;;309.25;281.45;;;;;;;9.53;100.00;101477.63;4935909;29;20493;-77
2021/10/14 01:42:24;;;;;;;300.92;273.63;;;;;;;9.60;100.00;101475.06;4936017;29;20130;-79
2021/10/14 01:44:51;;;;;;;297.27;269.25;;;;;;;9.62;100.00;101471.25;4936075;29;20461;-78
2021/10/14 01:47:18;;;;;;;299.45;272.50;;;;;;;9.67;100.00;101476.00;4940856;29;20055;-79
2021/10/14 01:49:44;;;;;;;309.60;282.05;;;;;;;9.66;100.00;101473.53;4935841;29;20043;-79
2021/10/14 01:52:11;;;;;;;288.88;262.88;;;;;;;9.63;100.00;101467.59;4935832;29;20051;-79
2021/10/14 01:54:39;;;;;;;282.63;256.80;;;;;;;9.69;100.00;101473.19;4937427;29;20485;-80
2021/10/14 01:57:06;;;;;;;295.88;270.02;;;;;;;9.68;100.00;101485.59;4936094;29;20108;-77
2021/10/14 01:59:33;;;;;;;320.48;293.30;;;;;;;9.63;100.00;101495.94;4936748;29;20114;-79
2021/10/14 02:02:01;;;;;;;326.33;298.45;;;;;;;9.55;100.00;101503.97;5034038;23;20118;-88
2021/10/14 02:04:30;;;;;;;299.60;272.63;;;;;;;9.62;100.00;101496.91;4960842;28;20480;-90
2021/10/14 02:07:05;;;;;;;309.08;281.65;;;;;;;9.65;100.00;101485.94;4953100;28;20134;-90
2021/10/14 02:12:19;;;;;;;295.73;269.53;;;;;;;9.72;100.00;101489.53;4961171;28;20066;-90
2021/10/14 02:14:51;;;;;;;268.77;244.57;;;;;;;9.75;100.00;101493.66;4952265;28;20295;-89
2021/10/14 02:17:21;;;;;;;272.67;247.50;;;;;;;9.77;100.00;101479.22;4950991;29;20078;-90
2021/10/14 02:19:56;;;;;;;297.00;271.35;;;;;;;9.73;100.00;101471.78;4968792;28;20049;-89
2021/10/14 02:22:24;;;;;;;296.48;270.52;;;;;;;9.61;100.00;101476.72;4954859;28;20051;-89
2021/10/14 02:24:52;;;;;;;286.35;261.50;;;;;;;9.61;100.00;101474.88;4953231;28;20047;-89
2021/10/14 02:27:25;;;;;;;362.98;330.25;;;;;;;9.58;100.00;101482.38;4957504;28;20048;-89
2021/10/14 02:29:56;;;;;;;364.15;330.98;;;;;;;9.51;100.00;101476.16;4970895;28;20043;-89
2021/10/14 02:32:31;;;;;;;371.58;338.02;;;;;;;9.53;100.00;101490.91;4969708;28;20102;-89
2021/10/14 02:35:19;;;;;;;346.50;317.00;;;;;;;9.37;100.00;101493.69;4955087;28;20071;-89
2021/10/14 02:37:46;;;;;;;357.67;325.30;;;;;;;9.29;100.00;101491.94;4963292;28;20419;-90
2021/10/14 02:40:22;;;;;;;333.13;305.63;;;;;;;9.43;100.00;101489.50;4943085;28;20102;-90
2021/10/14 02:42:55;;;;;;;353.80;323.15;;;;;;;9.33;100.00;101492.41;4964873;28;20047;-89
2021/10/14 02:45:23;;;;;;;;;;;;;;;9.26;100.00;101486.13;4954824;28;20082;-90
2021/10/14 02:47:50;;;;;;;295.25;271.17;;;;;;;9.20;100.00;101487.69;4937768;28;20351;-89
2021/10/14 02:50:18;;;;;;;304.13;280.35;;;;;;;9.22;100.00;101482.22;4965377;28;20058;-91
2021/10/14 02:52:59;;;;;;;270.33;248.35;;;;;;;9.18;100.00;101481.75;4956919;28;20134;-89
2021/10/14 02:55:28;;;;;;;260.83;240.20;;;;;;;9.22;100.00;101490.97;4953900;28;20106;-89
2021/10/14 02:58:00;;;;;;;267.90;247.00;;;;;;;9.20;100.00;101495.66;4970389;28;20050;-92
2021/10/14 03:00:48;;;;;;;295.50;273.30;;;;;;;9.20;100.00;101500.09;4955016;28;20054;-89
2021/10/14 03:03:36;;;;;;;248.57;229.27;;;;;;;9.18;100.00;101503.78;4957674;28;20485;-89
2021/10/14 03:06:06;;;;;;;252.00;231.30;;;;;;;9.19;100.00;101507.25;4941574;29;20054;-89
2021/10/14 03:08:34;;;;;;;219.32;200.63;;;;;;;9.16;100.00;101515.53;4951404;28;20050;-89
2021/10/14 03:11:03;;;;;;;200.65;182.82;;;;;;;9.14;100.00;101507.78;4955724;28;20094;-88
2021/10/14 03:13:32;;;;;;;192.65;174.95;;;;;;;9.19;100.00;101507.25;4953646;28;20047;-89
2021/10/14 03:16:07;;;;;;;234.27;215.38;;;;;;;9.20;100.00;101513.34;4961268;28;20058;-89
2021/10/14 03:18:38;;;;;;;204.05;187.05;;;;;;;9.26;100.00;101502.03;4970164;28;20488;-88
2021/10/14 03:21:07;;;;;;;218.55;201.18;;;;;;;9.18;100.00;101503.78;4960336;28;20121;-89
2021/10/14 03:23:35;;;;;;;247.88;228.20;;;;;;;9.11;100.00;101510.78;4962956;28;20050;-89
2021/10/14 03:26:04;;;;;;;226.90;208.80;;;;;;;9.20;100.00;101524.81;4955234;28;20113;-90
2021/10/14 03:28:45;;;;;;;274.25;253.18;;;;;;;8.98;100.00;101531.72;4966733;28;20044;-89
2021/10/14 03:31:15;;;;;;;268.20;247.65;;;;;;;8.95;100.00;101532.91;4968693;28;20432;-90
2021/10/14 03:33:43;;;;;;;261.65;240.13;;;;;;;9.26;100.00;101528.56;4960105;28;20117;-89
2021/10/14 03:36:11;;;;;;;266.73;245.65;;;;;;;9.12;100.00;101528.31;4966971;28;20485;-89
2021/10/14 03:38:48;;;;;;;278.33;256.45;;;;;;;9.04;100.00;101535.50;4960959;28;20546;-89
2021/10/14 03:41:18;;;;;;;282.60;260.55;;;;;;;9.16;100.00;101547.34;4967640;28;20513;-89
2021/10/14 03:44:13;;;;;;;286.23;264.40;;;;;;;9.28;100.00;101537.16;4958534;28;20050;-89
2021/10/14 03:46:43;;;;;;;236.52;217.77;;;;;;;9.27;100.00;101551.44;4955852;28;20051;-89
2021/10/14 03:49:11;;;;;;;262.85;242.25;;;;;;;9.26;100.00;101541.81;4959282;28;20047;-90
2021/10/14 03:54:22;;;;;;;254.90;234.60;;;;;;;9.16;100.00;101555.31;4936308;29;20055;-90
2021/10/14 03:56:50;;;;;;;232.75;215.23;;;;;;;9.11;100.00;101561.16;4945457;28;20053;-89
2021/10/14 03:59:20;;;;;;;236.45;218.38;;;;;;;9.20;100.00;101564.56;4968516;28;20106;-89
2021/10/14 04:01:52;;;;;;;230.27;212.25;;;;;;;9.10;100.00;101564.78;4967651;28;20125;-90
2021/10/14 04:07:03;;;;;;;268.60;248.27;;;;;;;9.19;100.00;101568.19;4970391;28;20535;-89
2021/10/14 04:09:34;;;;;;;256.77;237.55;;;;;;;9.20;100.00;101579.63;4971108;28;20504;-89
2021/10/14 04:12:03;;;;;;;267.73;246.90;;;;;;;8.94;100.00;101584.25;4952420;29;20047;-89
2021/10/14 04:14:36;;;;;;;280.23;259.08;;;;;;;9.04;100.00;101591.16;4962719;28;20050;-89
2021/10/14 04:17:04;;;;;;;268.15;247.70;;;;;;;8.85;100.00;101597.72;4955148;28;20067;-88
2021/10/14 04:19:34;;;;;;;258.40;238.57;;;;;;;8.99;100.00;101607.59;4955098;28;20051;-90
2021/10/14 04:22:04;;;;;;;278.63;257.48;;;;;;;9.00;100.00;101603.94;4968055;28;20106;-89
2021/10/14 04:24:33;;;;;;;278.90;256.60;;;;;;;8.93;100.00;101614.41;4935999;29;20399;-90
2021/10/14 04:27:00;;;;;;;271.15;250.23;;;;;;;9.01;100.00;101612.69;4936677;28;20569;-89
2021/10/14 04:29:27;;;;;;;277.40;256.25;;;;;;;9.03;100.00;101616.84;4958841;28;20051;-89
2021/10/14 04:32:21;;;;;;;286.40;264.30;;;;;;;9.07;100.00;101623.44;4963586;28;20050;-89
2021/10/14 04:34:55;;;;;;;262.83;242.55;;;;;;;8.98;100.00;101629.78;4956137;28;20110;-90
2021/10/14 04:37:22;;;;;;;247.95;227.90;;;;;;;9.04;100.00;101620.31;4949911;28;20497;-89
2021/10/14 04:39:50;;;;;;;272.38;249.65;;;;;;;8.88;100.00;101623.88;4957793;28;20062;-89
2021/10/14 04:42:18;;;;;;;205.05;187.10;;;;;;;8.85;100.00;101624.22;4960556;28;20065;-89
2021/10/14 04:44:47;;;;;;;260.05;238.25;;;;;;;8.85;100.00;101624.22;4971110;28;20057;-89
2021/10/14 04:47:32;;;;;;;282.90;260.23;;;;;;;8.95;100.00;101627.47;4973607;28;20516;-89
2021/10/14 04:50:00;;;;;;;271.10;249.32;;;;;;;8.95;100.00;101638.88;4954008;28;20075;-89
2021/10/14 04:52:31;;;;;;;271.90;250.25;;;;;;;9.01;100.00;101640.03;4957419;28;20054;-90
2021/10/14 04:55:00;;;;;;;266.75;245.05;;;;;;;8.91;100.00;101639.41;4961321;28;20054;-89
2021/10/14 04:57:28;;;;;;;280.02;257.38;;;;;;;8.92;100.00;101633.09;4954969;28;20051;-89
2021/10/14 04:59:55;;;;;;;291.35;266.20;;;;;;;8.92;100.00;101644.53;4958141;28;20078;-89
2021/10/14 05:02:34;;;;;;;292.27;267.60;;;;;;;8.89;100.00;101644.88;4955083;28;20047;-90
2021/10/14 05:05:02;;;;;;;191.80;173.15;;;;;;;8.78;100.00;101650.56;4963482;28;20505;-88
2021/10/14 05:07:31;;;;;;;217.60;197.02;;;;;;;8.80;100.00;101640.59;4956589;28;20137;-92
2021/10/14 05:09:59;;;;;;;299.98;273.75;;;;;;;8.86;100.00;101650.50;4954395;29;20490;-91
2021/10/14 05:12:28;;;;;;;287.65;262.77;;;;;;;8.79;100.00;101652.22;4956684;28;20055;-91
2021/10/14 05:14:55;;;;;;;287.85;263.20;;;;;;;8.79;100.00;101654.03;4953241;28;20055;-89
2021/10/14 05:17:24;;;;;;;273.73;249.57;;;;;;;8.70;100.00;101662.00;4948951;28;20051;-91
2021/10/14 05:19:53;;;;;;;173.82;156.15;;;;;;;9.64;100.00;101651.41;4970897;28;20551;-90
2021/10/14 05:22:20;;;;;;;167.20;151.23;;;;;;;9.27;100.00;101655.63;4961117;28;20145;-91
2021/10/14 05:24:47;;;;;;;154.07;139.10;;;;;;;8.87;100.00;101660.13;4956535;28;20051;-91
2021/10/14 05:27:14;;;;;;;146.68;132.32;;;;;;;8.81;100.00;101657.34;4956625;28;20061;-91
2021/10/14 05:29:40;;;;;;;161.18;146.10;;;;;;;8.82;100.00;101666.94;4957077;28;20047;-89
2021/10/14 05:32:07;;;;;;;148.90;134.30;;;;;;;8.71;100.00;101668.97;4958219;28;20050;-89
2021/10/14 05:34:34;;;;;;;158.02;142.43;;;;;;;8.63;100.00;101670.81;4958797;28;20055;-88
2021/10/14 05:37:03;;;;;;;150.60;136.25;;;;;;;8.73;100.00;101667.97;4953884;28;20047;-89
2021/10/14 05:39:29;;;;;;;151.85;137.43;;;;;;;8.69;100.00;101681.56;4962926;28;20149;-91
2021/10/14 05:41:56;;;;;;;153.18;138.25;;;;;;;8.71;100.00;101692.81;4963253;28;20046;-90
2021/10/14 05:44:23;;;;;;;145.02;130.18;;;;;;;8.73;100.00;101687.31;4967132;28;20050;-91
2021/10/14 05:46:50;;;;;;;141.88;128.27;;;;;;;8.71;100.00;101694.59;4960094;28;20047;-89
2021/10/14 05:49:17;;;;;;;152.32;137.85;;;;;;;8.64;100.00;101694.47;4961810;28;20054;-90
2021/10/14 05:51:44;;;;;;;154.80;140.55;;;;;;;8.63;100.00;101687.53;4972630;28;20062;-89
2021/10/14 05:54:12;;;;;;;161.07;146.18;;;;;;;8.57;100.00;101677.59;4967847;28;20051;-91
2021/10/14 05:56:39;;;;;;;153.52;139.60;;;;;;;8.67;100.00;101678.22;4959949;28;20051;-91
2021/10/14 05:59:06;;;;;;;161.63;146.63;;;;;;;8.66;100.00;101675.78;4965325;28;20057;-91
2021/10/14 06:01:33;;;;;;;161.50;146.00;;;;;;;8.64;100.00;101685.69;4961782;28;20047;-91
2021/10/14 06:03:59;;;;;;;160.90;146.15;;;;;;;8.60;100.00;101687.03;4961403;28;20051;-91
2021/10/14 06:06:26;;;;;;;246.98;226.98;;;;;;;8.53;100.00;101678.09;4960734;28;20046;-91
2021/10/14 06:08:58;;;;;;;221.60;203.30;;;;;;;8.73;100.00;101692.63;4962802;28;20043;-89
2021/10/14 06:11:53;;;;;;;160.38;145.68;;;;;;;8.68;100.00;101700.25;4964876;28;20055;-91
2021/10/14 06:14:20;;;;;;;139.77;126.70;;;;;;;8.66;100.00;101700.44;4957623;28;20159;-91
2021/10/14 06:16:48;;;;;;;148.18;133.75;;;;;;;8.70;100.00;101706.22;4952639;28;20098;-91
2021/10/14 06:19:16;;;;;;;146.23;132.50;;;;;;;8.55;100.00;101702.59;4965001;28;20050;-91
2021/10/14 06:21:46;;;;;;;161.63;146.98;;;;;;;8.75;100.00;101711.00;4961957;28;20043;-90
2021/10/14 06:24:15;;;;;;;161.80;146.90;;;;;;;8.66;100.00;101708.38;4952696;28;20051;-90
2021/10/14 06:26:49;;;;;;;155.63;141.07;;;;;;;8.70;100.00;101711.50;4952602;28;20094;-90
2021/10/14 06:29:17;;;;;;;194.00;177.40;;;;;;;8.69;100.00;101723.09;4955463;28;20051;-91
2021/10/14 06:31:44;;;;;;;168.18;152.77;;;;;;;8.70;100.00;101724.75;4959181;28;20574;-91
2021/10/14 06:34:12;;;;;;;150.23;136.02;;;;;;;8.69;100.00;101728.41;4954472;28;20055;-91
2021/10/14 06:36:41;;;;;;;147.95;133.82;;;;;;;8.67;100.00;101731.19;4943586;29;20062;-91
2021/10/14 06:39:08;;;;;;;162.80;147.68;;;;;;;8.65;100.00;101727.91;4965190;28;20047;-91
2021/10/14 06:41:43;;;;;;;181.68;164.93;;;;;;;8.70;100.00;101728.22;4947507;28;20410;-89
2021/10/14 06:44:35;;;;;;;217.77;199.27;;;;;;;8.50;100.00;101726.91;4956334;28;20505;-90
2021/10/14 06:47:01;;;;;;;175.38;158.95;;;;;;;8.68;100.00;101727.59;4954476;28;20047;-91
2021/10/14 06:49:31;;;;;;;170.27;154.55;;;;;;;8.79;100.00;101726.38;4955179;28;20051;-90
2021/10/14 06:51:59;;;;;;;154.07;139.23;;;;;;;8.71;100.00;101726.38;4935660;28;20051;-91
2021/10/14 06:54:26;;;;;;;160.32;143.60;;;;;;;8.70;100.00;101722.09;4969106;28;20047;-91
2021/10/14 06:57:04;;;;;;;193.85;175.20;;;;;;;8.52;100.00;101726.78;4955765;28;20055;-88
2021/10/14 06:59:37;;;;;;;169.23;152.30;;;;;;;8.75;100.00;101729.56;4962719;28;20051;-91
2021/10/14 07:02:06;;;;;;;167.13;150.43;;;;;;;8.88;100.00;101735.13;4955102;28;20316;-89
2021/10/14 07:04:33;;;;;;;151.90;137.02;;;;;;;8.87;100.00;101731.66;4958707;28;20122;-90
2021/10/14 07:07:00;;;;;;;154.93;140.05;;;;;;;8.76;100.00;101737.31;4951726;28;20425;-90
2021/10/14 07:09:30;;;;;;;146.93;132.57;;;;;;;8.85;100.00;101741.59;4944341;28;20057;-90
2021/10/14 07:12:00;;;;;;;153.68;138.27;;;;;;;8.88;100.00;101746.56;4975617;28;20452;-90
2021/10/14 07:14:30;;;;;;;170.68;154.32;;;;;;;8.76;100.00;101747.91;4963939;28;20114;-90
2021/10/14 07:16:59;;;;;;;167.35;150.68;;;;;;;8.55;100.00;101750.25;4943910;28;20047;-90
2021/10/14 07:19:25;;;;;;;182.90;164.93;;;;;;;8.76;100.00;101755.03;4962360;28;20053;-90
2021/10/14 07:21:52;;;;;;;176.45;159.18;;;;;;;8.71;100.00;101759.03;4968806;28;20050;-91
2021/10/14 07:24:19;;;;;;;168.32;151.98;;;;;;;8.79;100.00;101749.41;4960416;28;20429;-87
2021/10/14 07:26:46;;;;;;;164.45;148.35;;;;;;;8.77;100.00;101751.38;4965740;28;20043;-88
2021/10/14 07:29:13;;;;;;;166.90;150.68;;;;;;;8.87;100.00;101763.47;4964005;28;20043;-90
2021/10/14 07:31:40;;;;;;;172.48;155.60;;;;;;;8.87;100.00;101762.63;4962042;28;20050;-88
2021/10/14 07:34:08;;;;;;;179.38;162.07;;;;;;;8.81;100.00;101763.31;4960090;28;20153;-89
2021/10/14 07:36:35;;;;;;;168.18;151.27;;;;;;;8.77;100.00;101765.44;4960527;28;20504;-90
2021/10/14 07:39:02;;;;;;;171.48;155.13;;;;;;;9.03;100.00;101773.19;4963900;28;20055;-91
2021/10/14 07:41:29;;;;;;;164.50;148.43;;;;;;;9.01;100.00;101777.81;4963915;28;20492;-88
2021/10/14 07:44:00;;;;;;;173.57;157.30;;;;;;;9.06;100.00;101777.31;4963945;28;20047;-90
2021/10/14 07:46:30;;;;;;;164.75;149.38;;;;;;;8.96;100.00;101774.88;4963569;28;20054;-89
2021/10/14 07:49:00;;;;;;;170.13;153.90;;;;;;;9.15;100.00;101782.44;4971388;28;20051;-90
2021/10/14 07:51:30;;;;;;;177.30;160.48;;;;;;;9.07;100.00;101781.63;4965924;28;20067;-91
2021/10/14 07:53:58;;;;;;;172.00;155.50;;;;;;;9.24;100.00;101780.56;4957200;28;20055;-91
2021/10/14 07:56:25;;;;;;;214.63;196.27;;;;;;;9.32;100.00;101774.41;4959696;28;20102;-90
2021/10/14 07:58:52;;;;;;;163.48;147.43;;;;;;;9.18;100.00;101763.53;4961023;28;20405;-89
2021/10/14 08:01:20;;;;;;;181.32;164.43;;;;;;;9.22;100.00;101764.00;4960468;28;20043;-90
2021/10/14 08:03:48;;;;;;;160.55;145.48;;;;;;;9.10;100.00;101763.53;4952804;28;20428;-90
2021/10/14 08:06:26;;;;;;;159.63;144.63;;;;;;;9.13;100.00;101763.19;4965917;28;20105;-90
2021/10/14 08:08:55;;;;;;;169.20;153.20;;;;;;;9.26;100.00;101761.84;4955633;28;20047;-89
2021/10/14 08:11:21;;;;;;;158.27;143.02;;;;;;;9.01;100.00;101758.44;4959482;28;20053;-91
2021/10/14 08:13:48;;;;;;;164.73;148.57;;;;;;;9.01;100.00;101761.91;4962771;28;20437;-90
2021/10/14 08:16:18;;;;;;;175.48;158.43;;;;;;;9.03;100.00;101769.72;4954134;28;20052;-91
2021/10/14 08:18:46;;;;;;;165.35;149.23;;;;;;;9.20;100.00;101767.81;4958293;28;20051;-90
2021/10/14 08:21:13;;;;;;;157.93;142.57;;;;;;;9.34;100.00;101773.25;4958227;28;20062;-91
2021/10/14 08:23:42;;;;;;;173.20;156.15;;;;;;;9.55;100.00;101769.19;4968923;28;20053;-91
2021/10/14 08:26:14;;;;;;;188.20;170.40;;;;;;;9.66;100.00;101771.44;4960570;28;20055;-90
2021/10/14 08:28:41;;;;;;;165.88;149.25;;;;;;;9.35;100.00;101772.25;4954444;28;20043;-90
2021/10/14 08:31:09;;;;;;;172.68;155.98;;;;;;;9.24;100.00;101772.63;4954997;28;20051;-90
2021/10/14 08:33:37;;;;;;;203.95;185.05;;;;;;;9.56;100.00;101768.16;4959615;28;20047;-90
2021/10/14 08:36:05;;;;;;;188.18;170.02;;;;;;;9.70;100.00;101775.41;4955260;28;20529;-90
2021/10/14 08:38:33;;;;;;;178.15;161.38;;;;;;;9.70;100.00;101766.63;4953441;28;20058;-91
2021/10/14 08:41:03;;;;;;;205.98;186.88;;;;;;;9.57;100.00;101770.66;4954862;28;20043;-91
2021/10/14 08:43:36;;;;;;;192.60;175.20;;;;;;;9.63;100.00;101785.88;4963952;28;20051;-91
2021/10/14 08:46:19;;;;;;;184.77;167.35;;;;;;;9.34;100.00;101773.25;4954333;28;20051;-90
2021/10/14 08:48:56;;;;;;;201.05;182.30;;;;;;;9.48;100.00;101778.84;4956306;28;20058;-91
2021/10/14 08:51:24;;;;;;;287.00;258.00;;;;;;;9.36;100.00;101784.50;4954171;29;20485;-90
2021/10/14 08:53:54;;;;;;;281.27;253.55;;;;;;;9.32;100.00;101779.69;4964952;28;20046;-90
2021/10/14 08:56:25;;;;;;;282.17;256.30;;;;;;;9.50;100.00;101792.72;4962358;28;20157;-91
2021/10/14 08:58:58;;;;;;;248.45;225.80;;;;;;;9.43;100.00;101794.44;4961288;28;20484;-90
2021/10/14 09:01:25;;;;;;;200.90;182.88;;;;;;;9.20;100.00;101795.19;4959584;28;20484;-91
2021/10/14 09:03:54;;;;;;;201.85;183.63;;;;;;;9.48;100.00;101798.22;4961788;28;20059;-90
2021/10/14 09:06:38;;;;;;;193.20;175.10;;;;;;;9.67;100.00;101794.31;4965111;28;20058;-91
2021/10/14 09:09:08;;;;;;;186.85;169.63;;;;;;;9.18;100.00;101790.03;4950839;29;20078;-90
2021/10/14 09:11:35;;;;;;;176.02;159.13;;;;;;;9.02;100.00;101803.34;4948554;29;20062;-91
2021/10/14 09:14:08;;;;;;;190.88;173.27;;;;;;;9.10;100.00;101803.31;4960788;28;20047;-90
2021/10/14 09:16:39;;;;;;;198.70;180.23;;;;;;;9.18;100.00;101792.69;4948368;29;20051;-90
2021/10/14 09:19:20;;;;;;;187.23;169.32;;;;;;;9.21;100.00;101796.81;4962724;28;20051;-90
2021/10/14 09:21:48;;;;;;;203.48;184.23;;;;;;;9.24;100.00;101793.84;4948776;28;20095;-90
2021/10/14 09:24:31;;;;;;;207.60;187.52;;;;;;;8.93;100.00;101796.41;4958690;28;20055;-90
2021/10/14 09:26:59;;;;;;;194.05;174.65;;;;;;;8.83;100.00;101782.50;4956257;28;20051;-87
2021/10/14 09:29:37;;;;;;;202.30;183.82;;;;;;;9.05;100.00;101797.69;4959306;28;20079;-89
2021/10/14 09:32:07;;;;;;;200.38;180.70;;;;;;;9.23;100.00;101794.00;4955871;28;20081;-88
2021/10/14 09:34:43;;;;;;;200.43;181.20;;;;;;;9.17;100.00;101782.28;4972093;28;20483;-91
2021/10/14 09:37:31;;;;;;;200.15;181.93;;;;;;;8.85;100.00;101786.63;4971854;28;20075;-91
2021/10/14 09:40:01;;;;;;;189.10;171.98;;;;;;;8.80;100.00;101790.78;4955560;28;20141;-91
2021/10/14 09:42:46;;;;;;;214.48;195.02;;;;;;;8.95;100.00;101794.41;4953938;28;20604;-91
2021/10/14 09:45:26;;;;;;;218.75;198.73;;;;;;;9.06;100.00;101798.53;4955224;28;20051;-91
2021/10/14 09:48:11;;;;;;;226.75;205.27;;;;;;;9.29;100.00;101799.47;4950400;28;20537;-91
2021/10/14 09:50:40;;;;;;;227.50;205.85;;;;;;;9.11;100.00;101791.72;4958218;28;20115;-91
2021/10/14 09:53:11;;;;;;;210.32;189.63;;;;;;;8.87;100.00;101795.25;4947490;28;20051;-90
2021/10/14 09:55:40;;;;;;;214.13;194.15;;;;;;;8.89;100.00;101787.94;4961686;28;20420;-91
2021/10/14 09:58:07;;;;;;;205.30;186.05;;;;;;;8.92;100.00;101792.09;4959808;28;20051;-90
2021/10/14 10:00:39;;;;;;;219.25;199.52;;;;;;;8.82;100.00;101799.41;4947850;28;20054;-91
2021/10/14 10:03:11;;;;;;;227.02;206.45;;;;;;;8.83;100.00;101801.03;4957163;28;20059;-91
2021/10/14 10:05:39;;;;;;;235.30;214.63;;;;;;;8.77;100.00;101807.00;4960595;28;20057;-90
2021/10/14 10:08:13;;;;;;;227.27;206.20;;;;;;;9.09;100.00;101806.13;4959371;28;20054;-90
2021/10/14 10:10:52;;;;;;;236.65;215.35;;;;;;;9.15;100.00;101795.69;4955085;28;20054;-89
2021/10/14 10:13:21;;;;;;;223.32;203.32;;;;;;;9.05;100.00;101787.09;4961107;28;20061;-91
2021/10/14 10:15:50;;;;;;;229.55;208.90;;;;;;;9.00;100.00;101786.78;4955757;28;20057;-90
2021/10/14 10:18:42;;;;;;;223.85;203.82;;;;;;;8.91;100.00;101782.50;4941069;28;20055;-91
2021/10/14 10:21:34;;;;;;;224.88;204.50;;;;;;;9.12;100.00;101792.53;4935189;28;20055;-90
2021/10/14 10:24:05;;;;;;;218.73;199.03;;;;;;;9.16;100.00;101773.47;4958307;28;20062;-90
2021/10/14 10:26:53;;;;;;;241.35;217.27;;;;;;;8.92;100.00;101763.75;4961512;28;20054;-90
2021/10/14 10:29:47;;;;;;;225.07;205.32;;;;;;;9.15;100.00;101757.75;4951112;28;20059;-90
2021/10/14 10:32:20;;;;;;;202.55;184.63;;;;;;;9.06;100.00;101764.06;4952111;28;20058;-90
2021/10/14 10:37:43;;;;;;;200.13;181.95;;;;;;;9.14;100.00;101756.09;4940060;28;20497;-91
2021/10/14 10:40:13;;;;;;;201.40;183.20;;;;;;;9.27;100.00;101756.38;4953666;28;20111;-90
2021/10/14 10:42:44;;;;;;;229.80;208.00;;;;;;;9.27;100.00;101755.56;4960524;28;20455;-90
2021/10/14 10:45:13;;;;;;;237.93;215.88;;;;;;;9.31;100.00;101760.31;4957042;28;20118;-90
2021/10/14 10:47:44;;;;;;;220.63;200.77;;;;;;;9.17;100.00;101761.88;4955677;28;20058;-91
2021/10/14 10:50:16;;;;;;;219.73;200.45;;;;;;;9.03;100.00;101754.63;4958641;28;20059;-90
2021/10/14 10:52:45;;;;;;;229.35;208.90;;;;;;;8.81;100.00;101763.31;4961669;28;20061;-90
2021/10/14 10:55:39;;;;;;;226.00;205.35;;;;;;;9.16;100.00;101773.47;4960962;28;20082;-89
2021/10/14 10:58:07;;;;;;;220.68;200.48;;;;;;;8.88;100.00;101756.34;4942535;28;20053;-90
2021/10/14 11:00:37;;;;;;;220.70;200.48;;;;;;;8.89;100.00;101755.31;4955239;28;20062;-90
2021/10/14 11:03:27;;;;;;;206.35;187.25;;;;;;;8.82;100.00;101749.88;4952202;28;20556;-91
2021/10/14 11:05:55;;;;;;;201.23;182.77;;;;;;;8.98;100.00;101750.84;4942588;28;20544;-90
2021/10/14 11:08:24;;;;;;;231.32;209.82;;;;;;;8.92;100.00;101747.03;4951865;28;20062;-90
2021/10/14 11:10:55;;;;;;;228.32;207.15;;;;;;;9.20;100.00;101739.50;4957126;28;20138;-90
2021/10/14 11:13:23;;;;;;;220.40;200.27;;;;;;;9.22;100.00;101741.97;4960052;28;20047;-90
2021/10/14 11:15:52;;;;;;;234.02;212.52;;;;;;;9.26;100.00;101735.31;4953000;28;20059;-90
2021/10/14 11:18:22;;;;;;;222.57;201.68;;;;;;;9.36;100.00;101736.78;4957277;28;20513;-90
2021/10/14 11:20:52;;;;;;;231.55;209.25;;;;;;;9.33;100.00;101738.97;4964475;28;20061;-90